Time;durP1;ratioP1;P1;durP2;ratioP2;P2;SDS_P1;SDS_P2;PMS_P1;PMS_P2;Temp;Humidity;BMP_temperature;BMP_pressure;BME280_temperature;BME280_humidity;BME280_pressure;Samples;Min_cycle;Max_cycle;Signal;HPM_P1;HPM_P2
2022/10/06 00:01:02;;;;;;;2.17;1.60;;;15.90;99.90;;;;;;6047474;29;20293;-67
2022/10/06 00:04:10;;;;;;;1.80;1.60;;;15.90;99.90;;;;;;6046959;29;20290;-67
2022/10/06 00:07:17;;;;;;;1.50;1.40;;;15.90;99.90;;;;;;6046906;29;20465;-68
2022/10/06 00:10:21;;;;;;;2.17;1.30;;;15.90;99.90;;;;;;6040816;29;20286;-68
2022/10/06 00:13:27;;;;;;;1.40;1.30;;;15.90;99.90;;;;;;6028212;29;20303;-68
2022/10/06 00:16:33;;;;;;;2.05;1.55;;;15.80;99.90;;;;;;6029092;29;20462;-68
2022/10/06 00:19:37;;;;;;;5.35;1.58;;;15.80;99.90;;;;;;6028265;29;20495;-68
2022/10/06 00:22:46;;;;;;;2.30;1.33;;;15.80;99.90;;;;;;6028346;29;20449;-68
2022/10/06 00:25:51;;;;;;;2.80;1.55;;;15.80;99.90;;;;;;6028568;29;20276;-67
2022/10/06 00:28:56;;;;;;;2.00;1.65;;;15.80;99.90;;;;;;6027940;29;20302;-67
2022/10/06 00:32:00;;;;;;;1.65;1.55;;;15.70;99.90;;;;;;6028686;29;20274;-67
2022/10/06 00:35:08;;;;;;;2.17;1.65;;;15.70;99.90;;;;;;6027995;29;20306;-68
2022/10/06 00:38:16;;;;;;;1.63;1.52;;;15.70;99.90;;;;;;6027673;29;20346;-67
2022/10/06 00:41:23;;;;;;;1.75;1.70;;;15.70;99.90;;;;;;6028245;29;20294;-67
2022/10/06 00:44:27;;;;;;;1.55;1.55;;;15.60;99.90;;;;;;6027694;29;20306;-66
2022/10/06 00:47:33;;;;;;;1.48;1.48;;;15.60;99.90;;;;;;6027765;29;20279;-67
2022/10/06 00:50:38;;;;;;;1.60;1.50;;;15.60;99.90;;;;;;6042547;29;20278;-67
2022/10/06 00:53:45;;;;;;;1.50;1.50;;;15.60;99.90;;;;;;6027918;29;20302;-68
2022/10/06 00:56:50;;;;;;;1.50;1.50;;;15.60;99.90;;;;;;6027849;29;20294;-68
2022/10/06 00:59:55;;;;;;;1.70;1.60;;;15.60;99.90;;;;;;6027457;29;20306;-68
2022/10/06 01:03:05;;;;;;;1.80;1.80;;;15.60;99.90;;;;;;6027829;29;20295;-68
2022/10/06 01:06:12;;;;;;;4.68;1.50;;;15.60;99.90;;;;;;6027721;29;20302;-68
2022/10/06 01:09:19;;;;;;;1.58;1.50;;;15.60;99.90;;;;;;6027423;29;20319;-68
2022/10/06 01:12:25;;;;;;;1.77;1.77;;;15.60;99.90;;;;;;6048426;29;20273;-68
2022/10/06 01:15:32;;;;;;;2.92;1.83;;;15.60;99.90;;;;;;6050680;29;20274;-68
2022/10/06 01:18:39;;;;;;;3.13;2.00;;;15.60;99.90;;;;;;6064251;29;20302;-67
2022/10/06 01:21:47;;;;;;;3.38;1.73;;;15.70;99.90;;;;;;6049648;29;20310;-67
2022/10/06 01:24:53;;;;;;;4.20;1.70;;;15.60;99.90;;;;;;6049772;29;20309;-67
2022/10/06 01:27:58;;;;;;;1.77;1.77;;;15.60;99.90;;;;;;6049966;29;20298;-68
2022/10/06 01:31:05;;;;;;;3.33;1.55;;;15.60;99.90;;;;;;6064449;29;20558;-67
2022/10/06 01:34:11;;;;;;;1.77;1.70;;;15.60;99.90;;;;;;6049522;29;20593;-66
2022/10/06 01:37:16;;;;;;;3.00;1.70;;;15.70;99.90;;;;;;6064344;29;20278;-67
2022/10/06 01:40:24;;;;;;;2.78;2.00;;;15.70;99.90;;;;;;6063115;29;20293;-66
2022/10/06 01:43:29;;;;;;;2.58;2.05;;;15.70;99.90;;;;;;6063547;29;20298;-66
2022/10/06 01:46:34;;;;;;;3.75;2.30;;;15.70;99.90;;;;;;6064120;29;20282;-66
2022/10/06 01:49:40;;;;;;;1.92;1.83;;;15.70;99.90;;;;;;6049259;29;20297;-67
2022/10/06 01:52:45;;;;;;;2.00;1.90;;;15.70;99.90;;;;;;6049444;29;20302;-67
2022/10/06 01:55:51;;;;;;;2.90;2.10;;;15.70;99.90;;;;;;6049829;29;20311;-66
2022/10/06 01:59:01;;;;;;;2.67;1.92;;;15.70;99.90;;;;;;6063209;29;20322;-67
2022/10/06 02:02:06;;;;;;;2.10;2.00;;;15.70;99.90;;;;;;6063830;29;20293;-68
2022/10/06 02:05:13;;;;;;;3.40;2.13;;;15.70;99.90;;;;;;6063009;29;20297;-69
2022/10/06 02:08:22;;;;;;;3.53;1.90;;;15.70;99.90;;;;;;6016966;29;20299;-68
2022/10/06 02:11:34;;;;;;;1.90;1.90;;;15.70;99.90;;;;;;6002990;29;20280;-68
2022/10/06 02:14:42;;;;;;;4.80;2.20;;;15.60;99.90;;;;;;5980678;29;20615;-68
2022/10/06 02:17:47;;;;;;;4.57;2.28;;;15.70;99.90;;;;;;5994306;29;20300;-68
2022/10/06 02:20:52;;;;;;;2.15;2.00;;;15.70;99.90;;;;;;5994956;29;20595;-68
2022/10/06 02:23:57;;;;;;;3.65;2.17;;;15.80;99.90;;;;;;5980808;29;20308;-67
2022/10/06 02:27:04;;;;;;;1.98;1.90;;;15.70;99.90;;;;;;5994776;29;20276;-67
2022/10/06 02:30:13;;;;;;;3.53;2.30;;;15.70;99.90;;;;;;5993962;29;20557;-67
2022/10/06 02:33:21;;;;;;;1.90;1.80;;;15.70;99.90;;;;;;5993331;29;20304;-67
2022/10/06 02:36:26;;;;;;;4.15;2.20;;;15.70;99.90;;;;;;5980537;29;20283;-67
2022/10/06 02:39:32;;;;;;;2.35;1.90;;;15.60;99.90;;;;;;5993971;29;20303;-67
2022/10/06 02:42:39;;;;;;;3.95;2.35;;;15.70;99.90;;;;;;5993304;29;20299;-68
2022/10/06 02:45:44;;;;;;;2.97;2.08;;;15.60;99.90;;;;;;5994560;29;20444;-68
2022/10/06 02:48:50;;;;;;;3.13;2.40;;;15.70;99.90;;;;;;5979896;29;20303;-67
2022/10/06 02:51:54;;;;;;;2.35;1.98;;;15.60;99.90;;;;;;5994082;29;20280;-67
2022/10/06 02:55:00;;;;;;;1.98;1.88;;;15.60;99.90;;;;;;5993820;29;20319;-67
2022/10/06 02:58:06;;;;;;;2.50;2.30;;;15.60;99.90;;;;;;5979751;29;20310;-67
2022/10/06 03:01:14;;;;;;;2.25;2.15;;;15.50;99.90;;;;;;5994009;29;20303;-68
2022/10/06 03:04:19;;;;;;;3.75;2.35;;;15.50;99.90;;;;;;5985862;29;20307;-67
2022/10/06 03:07:24;;;;;;;6.03;2.53;;;15.50;99.90;;;;;;6039564;29;20491;-67
2022/10/06 03:10:29;;;;;;;3.78;2.35;;;15.60;99.90;;;;;;6039354;29;20464;-67
2022/10/06 03:13:36;;;;;;;3.00;2.35;;;15.60;99.90;;;;;;6061978;29;20302;-68
2022/10/06 03:16:42;;;;;;;3.83;2.60;;;15.50;99.90;;;;;;6062421;29;20273;-68
2022/10/06 03:19:56;;;;;;;2.47;2.33;;;15.50;99.90;;;;;;6053882;29;20298;-68
2022/10/06 03:23:02;;;;;;;3.28;3.08;;;15.50;99.90;;;;;;6038241;29;20467;-67
2022/10/06 03:26:08;;;;;;;3.55;2.92;;;15.50;99.90;;;;;;6039095;29;20464;-66
2022/10/06 03:29:15;;;;;;;3.50;2.75;;;15.50;99.90;;;;;;6038423;29;20302;-67
2022/10/06 03:32:25;;;;;;;5.13;2.70;;;15.50;99.90;;;;;;6038752;29;20292;-67
2022/10/06 03:35:31;;;;;;;3.08;2.80;;;15.50;99.90;;;;;;6038267;29;20306;-67
2022/10/06 03:38:36;;;;;;;2.47;2.38;;;15.50;99.90;;;;;;6058304;29;20494;-67
2022/10/06 03:41:41;;;;;;;5.00;2.55;;;15.40;99.90;;;;;;6047689;29;20297;-67
2022/10/06 03:44:48;;;;;;;7.50;2.70;;;15.40;99.90;;;;;;6061015;29;20301;-67
2022/10/06 03:47:55;;;;;;;5.82;2.65;;;15.40;99.90;;;;;;6061121;29;20278;-67
2022/10/06 03:51:02;;;;;;;3.35;2.75;;;15.40;99.90;;;;;;6061566;29;20283;-67
2022/10/06 03:54:09;;;;;;;5.88;3.03;;;15.40;99.90;;;;;;6047019;29;20298;-67
2022/10/06 03:57:16;;;;;;;2.92;2.83;;;15.50;99.90;;;;;;6061587;29;20282;-67
2022/10/06 04:00:23;;;;;;;3.50;3.20;;;15.40;99.90;;;;;;6061235;29;20305;-67
2022/10/06 04:03:28;;;;;;;3.22;3.03;;;15.40;99.90;;;;;;6061164;29;20302;-67
2022/10/06 04:06:35;;;;;;;3.35;2.95;;;15.40;99.90;;;;;;6047375;29;20510;-67
2022/10/06 04:09:42;;;;;;;8.40;3.22;;;15.40;99.90;;;;;;6060766;29;20301;-67
2022/10/06 04:12:48;;;;;;;4.90;3.38;;;15.40;99.90;;;;;;6040096;29;20270;-67
2022/10/06 04:15:55;;;;;;;3.70;3.30;;;15.30;99.90;;;;;;6038071;29;20279;-67
2022/10/06 04:19:01;;;;;;;5.95;3.47;;;15.20;99.90;;;;;;6037798;29;20321;-67
2022/10/06 04:22:08;;;;;;;4.57;3.53;;;15.20;99.90;;;;;;6037936;29;20290;-67
2022/10/06 04:25:13;;;;;;;4.78;3.30;;;15.20;99.90;;;;;;6037831;29;20298;-67
2022/10/06 04:28:33;;;;;;;3.60;3.30;;;15.20;99.90;;;;;;6023312;29;20302;-67
2022/10/06 04:31:41;;;;;;;3.70;3.50;;;15.10;99.90;;;;;;6038225;29;20278;-67
2022/10/06 04:34:55;;;;;;;5.22;3.40;;;15.10;99.90;;;;;;6037777;29;20298;-67
2022/10/06 04:38:02;;;;;;;4.28;3.40;;;15.00;99.90;;;;;;6037472;29;20295;-67
2022/10/06 04:41:13;;;;;;;3.40;3.30;;;15.00;99.90;;;;;;6037427;29;20270;-67
2022/10/06 04:44:19;;;;;;;2.05;1.95;;;14.90;99.90;;;;;;6037474;29;20314;-67
2022/10/06 04:47:26;;;;;;;1.65;1.65;;;14.80;99.90;;;;;;6038018;29;20270;-67
2022/10/06 04:50:30;;;;;;;5.72;1.48;;;14.70;99.90;;;;;;6022342;29;20302;-67
2022/10/06 04:53:48;;;;;;;1.73;1.70;;;14.70;99.90;;;;;;6037710;29;20302;-68
2022/10/06 04:56:53;;;;;;;1.75;1.65;;;14.70;99.90;;;;;;6024850;29;20275;-68
2022/10/06 05:03:26;;;;;;;1.25;1.25;;;14.60;99.90;;;;;;6041499;29;20299;-66
2022/10/06 05:06:33;;;;;;;2.78;1.65;;;14.60;99.90;;;;;;6027477;29;20494;-66
2022/10/06 05:09:39;;;;;;;1.15;1.05;;;14.70;99.90;;;;;;6027246;29;20302;-68
2022/10/06 05:12:45;;;;;;;1.02;1.00;;;14.60;99.90;;;;;;6061365;29;20270;-68
2022/10/06 05:15:56;;;;;;;1.63;1.10;;;14.50;99.90;;;;;;6050667;29;20299;-66
2022/10/06 05:19:07;;;;;;;2.10;1.00;;;14.40;99.90;;;;;;6064173;29;20297;-68
2022/10/06 05:22:15;;;;;;;1.08;0.98;;;14.40;99.90;;;;;;6064273;29;20278;-68
2022/10/06 05:25:21;;;;;;;1.33;1.23;;;14.30;99.90;;;;;;6064210;29;20405;-69
2022/10/06 05:28:28;;;;;;;0.90;0.90;;;14.30;99.90;;;;;;6049889;29;20301;-68
2022/10/06 05:31:37;;;;;;;0.90;0.90;;;14.30;99.90;;;;;;6064287;29;20278;-68
2022/10/06 05:34:44;;;;;;;1.65;0.80;;;14.20;99.90;;;;;;6063421;29;20504;-67
2022/10/06 05:37:49;;;;;;;0.90;0.90;;;14.20;99.90;;;;;;6049726;29;20285;-68
2022/10/06 05:41:01;;;;;;;1.55;1.10;;;14.30;99.90;;;;;;6064382;29;20410;-66
2022/10/06 05:44:07;;;;;;;1.20;1.10;;;14.30;99.90;;;;;;6063185;29;20305;-66
2022/10/06 05:47:16;;;;;;;1.10;0.80;;;14.30;99.90;;;;;;6064024;29;20274;-67
2022/10/06 05:50:23;;;;;;;2.33;1.05;;;14.10;99.90;;;;;;6063455;29;20301;-66
2022/10/06 05:53:30;;;;;;;2.80;1.10;;;14.20;99.90;;;;;;6062653;29;20613;-66
2022/10/06 05:56:37;;;;;;;2.17;0.90;;;14.20;99.90;;;;;;6063545;29;20270;-67
2022/10/06 05:59:43;;;;;;;2.67;1.00;;;14.10;99.90;;;;;;6063282;29;20302;-68
2022/10/06 06:02:48;;;;;;;1.85;0.95;;;14.10;99.90;;;;;;6062696;29;20582;-66
2022/10/06 06:05:54;;;;;;;0.98;0.98;;;14.10;99.90;;;;;;6062717;29;20301;-66
2022/10/06 06:09:02;;;;;;;1.40;0.80;;;14.00;99.90;;;;;;6048122;29;20302;-67
2022/10/06 06:12:07;;;;;;;1.10;1.00;;;14.00;99.90;;;;;;6034040;29;20266;-66
2022/10/06 06:18:46;;;;;;;1.52;0.90;;;13.90;99.90;;;;;;6039477;29;20294;-67
2022/10/06 06:21:53;;;;;;;0.70;0.70;;;14.00;99.90;;;;;;6039921;29;20283;-67
2022/10/06 06:24:58;;;;;;;3.15;0.88;;;14.00;99.90;;;;;;6039671;29;20586;-67
2022/10/06 06:28:05;;;;;;;2.53;0.82;;;14.00;99.90;;;;;;6039562;29;20456;-67
2022/10/06 06:31:16;;;;;;;1.25;0.98;;;14.00;99.90;;;;;;6026126;29;20267;-67
2022/10/06 06:34:28;;;;;;;0.68;0.68;;;14.00;99.90;;;;;;6039546;29;20302;-67
2022/10/06 06:37:34;;;;;;;1.23;0.80;;;14.10;99.90;;;;;;6024549;29;20274;-68
2022/10/06 06:40:40;;;;;;;1.05;0.95;;;14.10;99.90;;;;;;6037697;29;20282;-67
2022/10/06 06:43:47;;;;;;;1.00;1.00;;;14.10;99.90;;;;;;6023500;29;20309;-67
2022/10/06 06:47:22;;;;;;;1.13;0.70;;;14.10;99.90;;;;;;6031738;29;20288;-67
2022/10/06 06:50:30;;;;;;;5.07;0.93;;;14.00;99.90;;;;;;6038767;29;20461;-67
2022/10/06 06:53:37;;;;;;;2.90;0.85;;;13.90;99.90;;;;;;6038773;29;20313;-67
2022/10/06 06:56:44;;;;;;;2.90;1.20;;;13.90;99.90;;;;;;6039261;29;20282;-68
2022/10/06 06:59:49;;;;;;;4.68;0.80;;;14.00;99.90;;;;;;6039077;29;20306;-67
2022/10/06 07:02:59;;;;;;;2.30;0.80;;;14.00;99.90;;;;;;6038416;29;20278;-66
2022/10/06 07:06:10;;;;;;;7.15;1.00;;;14.00;99.90;;;;;;6038617;29;20314;-68
2022/10/06 07:09:19;;;;;;;3.10;1.10;;;14.00;99.90;;;;;;6023130;29;20311;-68
2022/10/06 07:12:25;;;;;;;4.00;1.30;;;14.00;99.90;;;;;;6056757;29;20266;-67
2022/10/06 07:25:48;;;;;;;3.63;1.08;;;14.10;99.90;;;;;;6060473;29;20301;-67
2022/10/06 07:28:52;;;;;;;2.78;0.90;;;14.00;99.90;;;;;;6061275;29;20481;-67
2022/10/06 07:31:57;;;;;;;3.35;1.35;;;13.90;99.90;;;;;;6061995;29;20278;-67
2022/10/06 07:35:03;;;;;;;3.22;0.90;;;13.90;99.90;;;;;;6061312;29;20488;-67
2022/10/06 07:38:08;;;;;;;4.38;1.00;;;13.90;99.90;;;;;;6047145;29;20293;-67
2022/10/06 07:41:19;;;;;;;2.28;1.08;;;13.90;99.90;;;;;;6061933;29;20274;-67
2022/10/06 07:44:29;;;;;;;2.35;0.80;;;14.00;99.90;;;;;;6061241;29;20373;-67
2022/10/06 07:47:36;;;;;;;4.22;1.20;;;14.10;99.90;;;;;;6046121;29;20269;-67
2022/10/06 07:50:42;;;;;;;3.53;0.82;;;14.00;99.90;;;;;;6046646;29;20283;-67
2022/10/06 07:53:50;;;;;;;2.38;1.20;;;14.00;99.90;;;;;;6045623;29;20612;-67
2022/10/06 07:57:05;;;;;;;1.38;1.10;;;14.00;99.90;;;;;;6061788;29;20278;-67
2022/10/06 08:00:14;;;;;;;2.45;1.40;;;14.10;99.90;;;;;;6046639;29;20297;-67
2022/10/06 08:03:19;;;;;;;3.28;1.27;;;14.20;99.90;;;;;;6046671;29;20293;-67
2022/10/06 08:06:24;;;;;;;2.38;0.90;;;14.10;99.90;;;;;;6047180;29;20309;-67
2022/10/06 08:09:30;;;;;;;3.63;1.00;;;14.10;99.90;;;;;;6047017;29;20301;-67
2022/10/06 08:12:38;;;;;;;6.10;1.13;;;14.10;99.90;;;;;;6028222;29;20290;-67
2022/10/06 08:15:43;;;;;;;5.32;1.17;;;14.10;99.90;;;;;;6022908;29;20274;-68
2022/10/06 08:18:51;;;;;;;1.15;0.90;;;14.10;99.90;;;;;;6023756;29;20299;-67
2022/10/06 08:21:56;;;;;;;2.60;0.95;;;14.10;99.90;;;;;;6024400;29;20278;-67
2022/10/06 08:25:11;;;;;;;5.13;1.58;;;14.20;99.90;;;;;;6023650;29;20310;-66
2022/10/06 08:28:21;;;;;;;2.15;1.08;;;14.10;99.90;;;;;;6023851;29;20298;-67
2022/10/06 08:31:26;;;;;;;6.93;2.38;;;14.20;99.90;;;;;;6025020;29;20280;-66
2022/10/06 08:34:31;;;;;;;8.63;1.27;;;14.20;99.90;;;;;;6027832;29;20298;-67
2022/10/06 08:37:36;;;;;;;2.15;1.20;;;14.20;99.90;;;;;;6028257;29;20276;-67
2022/10/06 08:40:43;;;;;;;5.40;1.40;;;14.10;99.90;;;;;;6027719;29;20286;-67
2022/10/06 08:43:56;;;;;;;3.08;1.38;;;14.10;99.90;;;;;;6027695;29;20322;-67
2022/10/06 08:47:04;;;;;;;4.07;1.33;;;14.10;99.90;;;;;;6028084;29;20483;-67
2022/10/06 08:50:12;;;;;;;7.13;0.90;;;14.20;99.90;;;;;;6027719;29;20299;-67
2022/10/06 08:53:25;;;;;;;1.92;1.00;;;14.10;99.90;;;;;;6027511;29;20294;-68
2022/10/06 08:56:36;;;;;;;3.75;1.20;;;14.10;99.90;;;;;;6027954;29;20287;-67
2022/10/06 08:59:44;;;;;;;2.17;1.05;;;14.10;99.90;;;;;;6027575;29;20318;-67
2022/10/06 09:02:49;;;;;;;3.88;1.35;;;14.10;99.90;;;;;;6027288;29;20279;-68
2022/10/06 09:06:01;;;;;;;5.45;1.35;;;14.10;99.90;;;;;;6027350;29;20306;-68
2022/10/06 09:09:24;;;;;;;4.45;1.45;;;14.20;99.90;;;;;;6027175;29;20311;-68
2022/10/06 09:12:36;;;;;;;2.17;1.20;;;14.20;99.90;;;;;;6045342;29;20454;-67
2022/10/06 09:15:49;;;;;;;4.68;1.17;;;14.20;99.90;;;;;;6049681;29;20286;-67
2022/10/06 09:19:00;;;;;;;8.20;1.23;;;14.20;99.90;;;;;;6049914;29;20310;-67
2022/10/06 09:22:18;;;;;;;2.30;1.10;;;14.30;99.90;;;;;;6050035;29;20448;-67
2022/10/06 09:25:27;;;;;;;3.42;1.38;;;14.30;99.90;;;;;;6049839;29;20305;-67
2022/10/06 09:28:33;;;;;;;3.42;1.48;;;14.50;99.90;;;;;;6049546;29;20397;-67
2022/10/06 09:31:41;;;;;;;5.82;1.50;;;14.50;99.90;;;;;;6049851;29;20298;-67
2022/10/06 09:34:51;;;;;;;2.00;1.15;;;14.50;99.90;;;;;;6049897;29;20610;-67
2022/10/06 09:38:02;;;;;;;2.35;1.08;;;14.60;99.90;;;;;;6049866;29;20274;-67
2022/10/06 09:41:13;;;;;;;5.82;1.20;;;14.70;99.90;;;;;;6050166;29;20274;-67
2022/10/06 09:44:24;;;;;;;2.42;1.30;;;14.60;99.90;;;;;;6048656;29;20310;-67
2022/10/06 09:47:43;;;;;;;2.78;1.30;;;14.60;99.90;;;;;;6049517;29;20290;-67
2022/10/06 09:51:07;;;;;;;3.60;1.17;;;14.70;99.90;;;;;;6049225;29;20299;-67
2022/10/06 09:54:14;;;;;;;2.72;1.10;;;14.70;99.90;;;;;;6049089;29;20307;-67
2022/10/06 09:57:25;;;;;;;4.82;1.38;;;14.80;99.90;;;;;;6049795;29;20282;-67
2022/10/06 10:00:33;;;;;;;3.85;0.90;;;14.80;99.90;;;;;;6049302;29;20597;-66
2022/10/06 10:03:50;;;;;;;2.08;1.20;;;14.90;99.90;;;;;;6048741;29;20313;-66
2022/10/06 10:07:16;;;;;;;5.05;1.48;;;14.90;99.90;;;;;;6048566;29;20594;-68
2022/10/06 10:10:23;;;;;;;5.93;1.77;;;14.90;99.90;;;;;;6047165;29;20490;-67
2022/10/06 10:13:28;;;;;;;5.03;1.20;;;14.90;99.90;;;;;;6026098;29;20306;-67
2022/10/06 10:16:34;;;;;;;3.17;1.20;;;15.00;99.90;;;;;;6026257;29;20282;-67
2022/10/06 10:19:45;;;;;;;1.42;1.10;;;15.00;99.90;;;;;;6025964;29;20319;-66
2022/10/06 10:22:50;;;;;;;4.07;1.20;;;15.10;99.90;;;;;;6025813;29;20274;-67
2022/10/06 10:26:21;;;;;;;1.13;1.08;;;15.10;99.90;;;;;;6025753;29;20294;-67
2022/10/06 10:29:51;;;;;;;1.88;1.08;;;15.10;99.90;;;;;;6025703;29;20494;-67
2022/10/06 10:33:04;;;;;;;3.10;1.30;;;15.10;99.90;;;;;;6025582;29;20275;-67
2022/10/06 10:36:15;;;;;;;5.00;1.10;;;15.10;99.90;;;;;;6025965;29;20279;-67
2022/10/06 10:39:33;;;;;;;2.08;1.15;;;15.10;99.90;;;;;;6025307;29;20602;-67
2022/10/06 10:42:41;;;;;;;1.50;1.20;;;15.10;99.90;;;;;;6025202;29;20275;-66
2022/10/06 10:45:49;;;;;;;3.88;1.00;;;15.10;99.90;;;;;;6025289;29;22143;-67
2022/10/06 10:48:58;;;;;;;2.03;0.82;;;15.10;99.90;;;;;;6025029;29;20606;-66
2022/10/06 10:52:10;;;;;;;4.38;1.20;;;15.20;99.90;;;;;;6025487;29;20287;-66
2022/10/06 10:55:25;;;;;;;7.70;1.10;;;15.20;99.90;;;;;;6024802;29;20302;-67
2022/10/06 10:58:35;;;;;;;3.22;1.00;;;15.20;99.90;;;;;;6024796;29;20310;-66
2022/10/06 11:01:45;;;;;;;5.75;1.10;;;15.20;99.90;;;;;;6025445;29;20279;-67
2022/10/06 11:04:53;;;;;;;2.42;0.90;;;15.20;99.90;;;;;;6024898;29;20307;-67
2022/10/06 11:08:03;;;;;;;1.17;0.95;;;15.20;99.90;;;;;;6024099;29;20308;-67
2022/10/06 11:11:16;;;;;;;6.90;1.83;;;15.20;99.90;;;;;;6032772;29;20262;-67
2022/10/06 11:14:35;;;;;;;5.72;1.38;;;15.20;99.90;;;;;;6047480;29;20473;-68
2022/10/06 11:17:44;;;;;;;3.85;0.90;;;15.20;99.90;;;;;;6047354;29;20278;-67
2022/10/06 11:20:53;;;;;;;3.80;1.00;;;15.20;99.90;;;;;;6048170;29;20554;-68
2022/10/06 11:24:03;;;;;;;2.75;0.88;;;15.20;99.90;;;;;;6047476;29;20301;-67
2022/10/06 11:27:32;;;;;;;3.65;0.82;;;15.10;99.90;;;;;;6047903;29;20293;-68
2022/10/06 11:30:49;;;;;;;6.10;0.90;;;15.20;99.90;;;;;;6046929;29;20301;-68
2022/10/06 11:33:56;;;;;;;4.85;0.93;;;15.30;99.90;;;;;;6047238;29;20602;-66
2022/10/06 11:37:08;;;;;;;2.80;1.00;;;15.30;99.90;;;;;;6047744;29;20569;-68
2022/10/06 11:40:35;;;;;;;0.88;0.80;;;15.40;99.90;;;;;;6047157;29;20299;-68
2022/10/06 11:43:49;;;;;;;3.10;0.82;;;15.40;99.90;;;;;;6047132;29;20301;-68
2022/10/06 11:46:58;;;;;;;2.30;0.60;;;15.30;99.90;;;;;;6047399;29;20290;-66
2022/10/06 11:50:33;;;;;;;1.20;1.20;;;15.30;99.90;;;;;;6046753;29;20297;-67
2022/10/06 11:53:40;;;;;;;2.72;0.68;;;15.30;99.90;;;;;;6046794;29;20302;-66
2022/10/06 11:56:46;;;;;;;3.13;0.90;;;15.30;99.90;;;;;;6047409;29;20314;-67
2022/10/06 11:59:52;;;;;;;3.25;0.70;;;15.20;99.90;;;;;;6046911;29;20467;-67
2022/10/06 12:03:52;;;;;;;5.05;1.17;;;15.30;99.90;;;;;;6046673;29;20282;-67
2022/10/06 12:07:04;;;;;;;1.55;0.90;;;15.20;99.90;;;;;;6048737;29;20305;-67
2022/10/06 12:10:34;;;;;;;3.53;1.00;;;15.30;99.90;;;;;;6050861;29;20301;-66
2022/10/06 12:13:43;;;;;;;5.05;0.98;;;15.40;99.90;;;;;;6028571;29;20302;-67
2022/10/06 12:17:16;;;;;;;2.17;0.90;;;15.50;99.90;;;;;;6028645;29;20282;-66
2022/10/06 12:20:33;;;;;;;3.85;0.90;;;15.60;99.90;;;;;;6028419;29;20302;-67
2022/10/06 12:23:49;;;;;;;2.72;1.20;;;15.60;99.90;;;;;;6028035;29;20310;-67
2022/10/06 12:27:19;;;;;;;4.15;1.02;;;15.60;99.90;;;;;;6028197;29;20489;-66
2022/10/06 12:30:33;;;;;;;5.90;1.00;;;15.70;99.90;;;;;;6028089;29;20302;-67
2022/10/06 12:33:41;;;;;;;4.55;1.13;;;15.60;99.90;;;;;;6028276;29;20303;-67
2022/10/06 12:36:46;;;;;;;5.53;1.10;;;15.70;99.90;;;;;;6028221;29;20278;-68
2022/10/06 12:39:53;;;;;;;5.22;1.20;;;15.60;99.90;;;;;;6028014;29;20299;-66
2022/10/06 12:43:33;;;;;;;3.28;1.40;;;15.70;99.90;;;;;;6027954;29;20310;-66
2022/10/06 12:46:43;;;;;;;6.30;1.20;;;15.70;99.90;;;;;;6023699;29;20274;-66
2022/10/06 12:49:49;;;;;;;6.20;1.10;;;15.60;99.90;;;;;;6027612;29;20300;-67
2022/10/06 12:52:58;;;;;;;5.50;1.60;;;15.60;99.90;;;;;;6027206;29;20308;-67
2022/10/06 12:56:13;;;;;;;3.55;1.20;;;15.60;99.90;;;;;;6027625;29;20274;-67
2022/10/06 12:59:24;;;;;;;4.78;1.48;;;15.50;99.90;;;;;;6027556;29;20307;-67
2022/10/06 13:02:29;;;;;;;9.93;1.20;;;15.50;99.90;;;;;;6027467;29;20467;-68
2022/10/06 13:05:35;;;;;;;3.45;1.48;;;15.60;99.90;;;;;;6027174;29;20322;-67
2022/10/06 13:08:40;;;;;;;6.25;1.20;;;15.60;99.90;;;;;;6027318;29;20615;-67
2022/10/06 13:11:48;;;;;;;5.72;1.42;;;15.60;99.90;;;;;;6040077;29;20270;-66
2022/10/06 13:15:22;;;;;;;4.22;1.40;;;15.70;99.90;;;;;;6050296;29;20314;-67
2022/10/06 13:18:29;;;;;;;7.15;1.40;;;15.70;99.90;;;;;;6049830;29;20306;-66
2022/10/06 13:21:34;;;;;;;5.63;1.60;;;15.80;99.90;;;;;;6050038;29;20278;-67
2022/10/06 13:24:39;;;;;;;7.38;1.65;;;15.80;99.90;;;;;;6050059;29;20586;-67
2022/10/06 13:27:51;;;;;;;7.53;1.50;;;15.70;99.90;;;;;;6049543;29;20294;-67
2022/10/06 13:30:58;;;;;;;9.35;1.95;;;15.50;99.90;;;;;;6050357;29;20270;-68
2022/10/06 13:34:13;;;;;;;2.67;1.50;;;15.50;99.90;;;;;;6049657;29;20306;-68
2022/10/06 13:37:17;;;;;;;4.53;1.52;;;15.60;99.90;;;;;;6050073;29;20270;-66
2022/10/06 13:40:32;;;;;;;11.20;1.60;;;15.60;99.90;;;;;;6049228;29;20294;-66
2022/10/06 13:43:52;;;;;;;4.25;1.60;;;15.60;99.90;;;;;;6049026;29;20309;-65
2022/10/06 13:47:00;;;;;;;6.07;1.80;;;15.60;99.90;;;;;;6049431;29;20274;-66
2022/10/06 13:50:08;;;;;;;4.25;1.77;;;15.60;99.90;;;;;;6049102;29;20301;-68
2022/10/06 13:53:25;;;;;;;4.55;1.67;;;15.60;99.90;;;;;;6049105;29;20294;-67
2022/10/06 13:56:37;;;;;;;5.20;1.30;;;15.50;99.90;;;;;;6049860;29;20270;-67
2022/10/06 13:59:43;;;;;;;3.42;1.30;;;15.50;99.90;;;;;;6049127;29;20302;-67
2022/10/06 14:02:50;;;;;;;3.30;1.20;;;15.60;99.90;;;;;;6048416;29;20277;-66
2022/10/06 14:06:11;;;;;;;3.08;1.27;;;15.60;99.90;;;;;;6049427;29;20302;-67
2022/10/06 14:09:23;;;;;;;4.95;1.33;;;15.60;99.90;;;;;;6048411;29;20306;-67
2022/10/06 14:12:28;;;;;;;4.75;1.17;;;15.50;99.90;;;;;;6031504;29;20270;-67
2022/10/06 14:15:48;;;;;;;6.85;1.40;;;15.50;99.60;;;;;;6025902;29;20299;-67
2022/10/06 14:18:58;;;;;;;3.85;1.13;;;15.50;99.90;;;;;;6025448;29;20302;-67
2022/10/06 14:22:05;;;;;;;5.78;1.50;;;15.50;99.70;;;;;;6025672;29;20290;-67
2022/10/06 14:25:14;;;;;;;7.57;1.58;;;15.50;99.70;;;;;;6025503;29;20335;-67
2022/10/06 14:28:19;;;;;;;3.95;1.20;;;15.50;99.60;;;;;;6025385;29;20302;-67
2022/10/06 14:31:27;;;;;;;7.18;1.35;;;15.50;99.70;;;;;;6025531;29;20279;-68
2022/10/06 14:34:32;;;;;;;6.65;1.65;;;15.50;99.90;;;;;;6025337;29;20491;-67
2022/10/06 14:37:37;;;;;;;11.80;1.48;;;15.50;99.90;;;;;;6024786;29;20543;-69
2022/10/06 14:40:42;;;;;;;9.23;1.50;;;15.50;99.90;;;;;;6025673;29;20278;-67
2022/10/06 14:43:48;;;;;;;10.68;1.38;;;15.40;99.90;;;;;;6024815;29;20302;-67
2022/10/06 14:46:56;;;;;;;4.78;1.60;;;15.40;99.90;;;;;;6025019;29;20278;-66
2022/10/06 14:50:01;;;;;;;2.15;1.40;;;15.40;99.90;;;;;;6024703;29;20306;-66
2022/10/06 14:53:09;;;;;;;7.93;1.80;;;15.30;99.70;;;;;;6038582;29;20299;-67
2022/10/06 14:56:15;;;;;;;8.85;1.83;;;15.30;99.00;;;;;;6024805;29;20275;-68
2022/10/06 14:59:21;;;;;;;2.80;1.40;;;15.40;99.10;;;;;;6024519;29;20459;-67
2022/10/06 15:02:28;;;;;;;6.93;1.38;;;15.30;99.10;;;;;;6024799;29;20275;-67
2022/10/06 15:05:33;;;;;;;6.00;1.55;;;15.30;98.90;;;;;;6024124;29;20306;-66
2022/10/06 15:08:37;;;;;;;3.63;1.42;;;15.30;99.00;;;;;;6024505;29;20306;-66
2022/10/06 15:11:42;;;;;;;8.45;1.38;;;15.20;99.20;;;;;;6036753;29;20463;-67
2022/10/06 15:14:47;;;;;;;3.13;1.23;;;15.30;99.40;;;;;;6047676;29;20400;-67
2022/10/06 15:17:53;;;;;;;7.20;1.60;;;15.30;99.70;;;;;;6047277;29;20273;-67
2022/10/06 15:21:03;;;;;;;5.38;1.15;;;15.20;99.90;;;;;;6048144;29;20456;-68
2022/10/06 15:24:11;;;;;;;7.72;1.35;;;15.20;99.80;;;;;;6047414;29;20310;-67
2022/10/06 15:30:40;;;;;;;6.47;1.50;;;15.10;99.40;;;;;;6047004;29;20566;-67
2022/10/06 15:33:46;;;;;;;7.00;1.30;;;15.10;99.20;;;;;;6047382;29;20314;-67
2022/10/06 15:36:57;;;;;;;3.53;1.40;;;15.10;99.50;;;;;;6047352;29;20297;-67
2022/10/06 15:40:04;;;;;;;6.07;1.58;;;15.10;99.40;;;;;;6046952;29;20310;-67
2022/10/06 15:43:11;;;;;;;7.15;1.30;;;15.20;99.60;;;;;;6046255;29;20305;-67
2022/10/06 15:46:15;;;;;;;2.88;1.30;;;15.10;99.40;;;;;;6047653;29;20269;-67
2022/10/06 15:49:23;;;;;;;4.97;1.38;;;15.10;99.50;;;;;;6047011;29;20310;-68
2022/10/06 15:52:28;;;;;;;6.75;1.50;;;15.00;99.80;;;;;;6047307;29;20277;-67
2022/10/06 15:55:32;;;;;;;4.75;1.35;;;15.00;99.80;;;;;;6047055;29;20302;-67
2022/10/06 15:58:38;;;;;;;6.75;1.35;;;14.90;99.90;;;;;;6046548;29;20297;-67
2022/10/06 16:01:45;;;;;;;5.25;1.30;;;14.90;99.90;;;;;;6047331;29;20274;-67
2022/10/06 16:05:27;;;;;;;4.65;1.30;;;14.90;99.90;;;;;;6046069;29;20496;-67
2022/10/06 16:08:20;;;;;;;9.65;1.70;;;14.90;99.90;;;;;;6046661;29;20305;-67
2022/10/06 16:11:25;;;;;;;9.85;1.40;;;14.90;99.90;;;;;;6037148;29;20294;-67
2022/10/06 16:14:30;;;;;;;5.32;1.63;;;14.90;99.90;;;;;;6023981;29;20334;-67
2022/10/06 16:17:35;;;;;;;3.70;1.45;;;14.80;99.90;;;;;;6023887;29;20489;-67
2022/10/06 16:20:42;;;;;;;6.65;2.00;;;14.80;99.90;;;;;;6023325;29;20283;-67
2022/10/06 16:23:47;;;;;;;4.97;1.63;;;14.80;99.90;;;;;;6023226;29;20303;-67
2022/10/06 16:26:52;;;;;;;4.90;2.13;;;14.70;99.90;;;;;;6024220;29;20279;-67
2022/10/06 16:29:57;;;;;;;10.70;2.22;;;14.80;99.90;;;;;;6023702;29;20602;-67
2022/10/06 16:33:02;;;;;;;5.97;1.60;;;14.80;99.90;;;;;;6037150;29;20579;-66
2022/10/06 16:36:09;;;;;;;6.68;1.73;;;14.80;99.90;;;;;;6024074;29;20366;-66
2022/10/06 16:39:17;;;;;;;8.18;1.80;;;14.80;99.90;;;;;;6023595;29;20302;-68
2022/10/06 16:42:23;;;;;;;6.43;2.40;;;14.80;99.90;;;;;;6023792;29;20346;-68